Time;durP1;ratioP1;P1;durP2;ratioP2;P2;SDS_P1;SDS_P2;PMS_P1;PMS_P2;Temp;Humidity;BMP_temperature;BMP_pressure;BME280_temperature;BME280_humidity;BME280_pressure;Samples;Min_cycle;Max_cycle;Signal;HPM_P1;HPM_P2
2022/03/20 00:01:16;;;;;;;9.25;5.40;;;5.70;99.90;;;;;;4972790;28;20125;-71
2022/03/20 00:03:42;;;;;;;13.05;6.00;;;5.70;99.90;;;;;;4989254;28;20057;-71
2022/03/20 00:06:08;;;;;;;10.35;5.60;;;5.60;99.90;;;;;;4989172;28;20109;-71
2022/03/20 00:08:33;;;;;;;10.65;5.90;;;5.70;99.90;;;;;;4972389;28;20053;-70
2022/03/20 00:11:01;;;;;;;8.88;5.93;;;5.70;99.90;;;;;;4989163;28;20060;-70
2022/03/20 00:13:27;;;;;;;10.05;5.70;;;5.70;99.90;;;;;;4973027;28;20038;-71
2022/03/20 00:15:55;;;;;;;10.38;5.55;;;5.70;99.90;;;;;;4990215;28;20050;-70
2022/03/20 00:18:23;;;;;;;10.68;5.90;;;5.70;99.90;;;;;;4988951;28;20125;-70
2022/03/20 00:20:51;;;;;;;11.57;5.97;;;5.70;99.90;;;;;;4989001;28;20069;-71
2022/03/20 00:23:18;;;;;;;8.40;5.85;;;5.70;99.90;;;;;;4989859;28;20077;-71
2022/03/20 00:25:45;;;;;;;10.95;5.78;;;5.60;99.90;;;;;;4984258;28;20157;-71
2022/03/20 00:28:13;;;;;;;10.27;6.03;;;5.60;99.90;;;;;;4989843;28;20117;-71
2022/03/20 00:30:39;;;;;;;11.23;6.20;;;5.60;99.90;;;;;;4990126;28;20053;-70
2022/03/20 00:33:06;;;;;;;10.38;6.03;;;5.60;99.90;;;;;;4988813;28;20427;-71
2022/03/20 00:35:32;;;;;;;10.40;5.70;;;5.50;99.90;;;;;;4989569;28;20066;-71
2022/03/20 00:37:58;;;;;;;10.05;6.00;;;5.50;99.90;;;;;;4989281;28;20034;-71
2022/03/20 00:40:23;;;;;;;9.05;5.65;;;5.50;99.90;;;;;;4991785;28;20046;-71
2022/03/20 00:42:50;;;;;;;10.65;5.70;;;5.50;99.90;;;;;;4991687;28;20042;-71
2022/03/20 00:45:15;;;;;;;12.88;6.32;;;5.50;99.90;;;;;;4990984;28;20049;-71
2022/03/20 00:47:41;;;;;;;9.63;5.53;;;5.40;99.90;;;;;;4972019;28;20030;-71
2022/03/20 00:50:07;;;;;;;9.80;5.80;;;5.50;99.90;;;;;;4988930;28;20073;-71
2022/03/20 00:52:34;;;;;;;11.52;6.18;;;5.50;99.90;;;;;;4970189;28;20597;-71
2022/03/20 00:54:59;;;;;;;10.18;6.03;;;5.50;99.90;;;;;;4989461;28;20047;-71
2022/03/20 00:57:25;;;;;;;11.10;6.25;;;5.30;99.90;;;;;;4990053;28;20471;-70
2022/03/20 00:59:50;;;;;;;10.70;5.88;;;5.40;99.90;;;;;;4973702;28;20050;-71
2022/03/20 01:02:16;;;;;;;14.77;6.60;;;5.40;99.90;;;;;;4991868;28;20157;-71
2022/03/20 01:04:42;;;;;;;10.10;6.30;;;5.30;99.90;;;;;;4991196;28;20126;-71
2022/03/20 01:07:07;;;;;;;11.60;6.30;;;5.40;99.90;;;;;;4970872;28;20046;-71
2022/03/20 01:09:34;;;;;;;10.23;6.25;;;5.30;99.90;;;;;;4971274;28;20136;-70
2022/03/20 01:12:01;;;;;;;10.93;5.65;;;5.30;99.90;;;;;;4974619;28;20039;-71
2022/03/20 01:14:27;;;;;;;11.52;6.60;;;5.20;99.90;;;;;;4971780;28;20038;-70
2022/03/20 01:16:54;;;;;;;10.55;6.50;;;5.20;99.90;;;;;;4971100;28;20479;-70
2022/03/20 01:19:23;;;;;;;11.45;6.20;;;5.20;99.90;;;;;;4988484;28;20058;-70
2022/03/20 01:21:50;;;;;;;11.77;6.30;;;5.10;99.90;;;;;;4987188;28;20462;-70
2022/03/20 01:24:16;;;;;;;10.50;6.20;;;5.00;99.90;;;;;;4989094;28;20050;-69
2022/03/20 01:26:41;;;;;;;9.10;5.97;;;5.00;99.90;;;;;;4988952;28;20061;-69
2022/03/20 01:29:07;;;;;;;11.57;6.43;;;4.90;99.90;;;;;;4990410;28;20046;-70
2022/03/20 01:31:33;;;;;;;11.50;6.40;;;4.90;99.90;;;;;;4990835;28;20050;-69
2022/03/20 01:33:59;;;;;;;10.55;6.40;;;4.90;99.90;;;;;;4988389;28;20047;-69
2022/03/20 01:36:25;;;;;;;11.80;6.57;;;4.90;99.90;;;;;;4970123;28;20548;-70
2022/03/20 01:38:52;;;;;;;10.88;6.47;;;4.90;99.90;;;;;;4987837;28;20034;-70
2022/03/20 01:41:17;;;;;;;11.73;6.45;;;4.80;99.90;;;;;;4989014;28;20089;-70
2022/03/20 01:43:55;;;;;;;12.15;6.32;;;4.80;99.90;;;;;;4988483;28;20050;-69
2022/03/20 01:46:21;;;;;;;10.52;6.03;;;4.70;99.90;;;;;;4989695;28;20053;-70
2022/03/20 01:48:49;;;;;;;11.15;7.05;;;4.70;99.90;;;;;;4987127;28;20043;-70
2022/03/20 01:51:16;;;;;;;10.80;6.63;;;4.70;99.90;;;;;;4988593;28;20046;-70
2022/03/20 01:53:42;;;;;;;11.20;6.40;;;4.70;99.90;;;;;;4987993;28;20042;-70
2022/03/20 01:56:08;;;;;;;10.90;6.88;;;4.70;99.90;;;;;;4970267;28;20046;-70
2022/03/20 01:58:34;;;;;;;11.15;6.10;;;5.90;99.90;;;;;;4971512;28;20457;-70
2022/03/20 02:01:00;;;;;;;15.55;7.25;;;4.60;99.90;;;;;;4974368;28;20042;-69
2022/03/20 02:03:26;;;;;;;11.50;7.18;;;4.60;99.90;;;;;;4995050;28;20046;-69
2022/03/20 02:05:53;;;;;;;11.18;7.20;;;4.60;99.90;;;;;;4979102;28;20061;-70
2022/03/20 02:08:25;;;;;;;13.88;6.95;;;4.60;99.90;;;;;;4979994;28;20057;-70
2022/03/20 02:10:52;;;;;;;11.90;7.28;;;4.50;99.90;;;;;;4994428;28;20068;-70
2022/03/20 02:13:23;;;;;;;11.13;7.22;;;4.50;99.90;;;;;;4994979;28;20495;-70
2022/03/20 02:15:51;;;;;;;13.93;7.35;;;4.50;99.90;;;;;;4994509;28;20101;-70
2022/03/20 02:18:18;;;;;;;12.73;6.90;;;4.40;99.90;;;;;;4993787;28;20077;-70
2022/03/20 02:20:47;;;;;;;13.93;7.55;;;4.40;99.90;;;;;;4993085;28;20454;-69
2022/03/20 02:23:13;;;;;;;12.32;6.95;;;4.40;99.90;;;;;;4994644;28;20060;-70
2022/03/20 02:25:47;;;;;;;15.15;7.45;;;4.40;99.90;;;;;;4993619;28;20080;-70
2022/03/20 02:28:14;;;;;;;15.45;7.70;;;4.40;99.90;;;;;;4995532;28;20117;-70
2022/03/20 02:30:39;;;;;;;13.98;8.15;;;4.40;99.90;;;;;;4994570;28;20052;-69
2022/03/20 02:33:05;;;;;;;14.20;8.00;;;4.40;99.90;;;;;;4993120;28;20125;-70
2022/03/20 02:35:33;;;;;;;15.18;8.65;;;4.40;99.90;;;;;;4994254;28;20046;-70
2022/03/20 02:37:58;;;;;;;14.32;8.10;;;4.40;99.90;;;;;;4993224;28;20042;-70
2022/03/20 02:40:24;;;;;;;13.77;8.02;;;4.40;99.90;;;;;;4995329;28;20064;-70
2022/03/20 02:42:54;;;;;;;14.20;8.40;;;4.30;99.90;;;;;;4994067;28;20041;-70
2022/03/20 02:45:30;;;;;;;14.70;8.48;;;4.30;99.90;;;;;;4977512;28;20097;-70
2022/03/20 02:48:01;;;;;;;16.15;8.57;;;4.30;99.90;;;;;;4976851;28;20058;-69
2022/03/20 02:50:27;;;;;;;12.32;7.95;;;4.30;99.90;;;;;;4994895;28;20053;-70
2022/03/20 02:52:54;;;;;;;20.52;8.68;;;4.30;99.90;;;;;;4992487;28;20097;-70
2022/03/20 02:55:19;;;;;;;16.45;8.95;;;4.30;99.90;;;;;;4994796;28;20101;-70
2022/03/20 02:57:47;;;;;;;15.52;9.48;;;4.20;99.90;;;;;;4994421;28;20046;-70
2022/03/20 03:00:21;;;;;;;17.05;9.30;;;4.20;99.90;;;;;;4973799;28;20054;-69
2022/03/20 03:02:48;;;;;;;13.55;8.38;;;4.20;99.90;;;;;;4991390;28;20034;-70
2022/03/20 03:05:15;;;;;;;16.42;9.48;;;4.30;99.90;;;;;;4977153;28;20144;-70
2022/03/20 03:13:14;;;;;;;16.30;8.93;;;4.20;99.90;;;;;;4990599;28;20621;-70
2022/03/20 03:15:40;;;;;;;19.20;10.00;;;4.20;99.90;;;;;;4990968;28;20042;-69
2022/03/20 03:18:05;;;;;;;18.33;10.02;;;4.10;99.90;;;;;;4991148;28;20096;-69
2022/03/20 03:20:32;;;;;;;16.13;10.52;;;4.10;99.90;;;;;;4990325;28;20246;-70
2022/03/20 03:22:58;;;;;;;18.15;10.45;;;4.10;99.90;;;;;;4991457;28;20057;-70
2022/03/20 03:25:24;;;;;;;15.68;10.25;;;4.00;99.90;;;;;;4992300;28;20050;-69
2022/03/20 03:27:51;;;;;;;18.52;10.32;;;4.00;99.90;;;;;;4990097;28;20069;-70
2022/03/20 03:30:16;;;;;;;18.15;10.15;;;4.00;99.90;;;;;;4993612;28;20046;-69
2022/03/20 03:32:43;;;;;;;16.23;10.50;;;4.00;99.90;;;;;;4992512;28;20565;-70
2022/03/20 03:37:54;;;;;;;18.05;10.20;;;3.90;99.90;;;;;;4989934;28;20134;-69
2022/03/20 03:40:20;;;;;;;19.52;10.60;;;4.00;99.90;;;;;;4991746;28;20126;-70
2022/03/20 03:42:46;;;;;;;17.02;10.48;;;5.30;99.90;;;;;;4989846;28;20043;-71
2022/03/20 03:45:12;;;;;;;19.67;11.30;;;4.00;99.90;;;;;;4991691;28;20050;-70
2022/03/20 03:47:38;;;;;;;18.73;10.70;;;3.90;99.90;;;;;;4990242;28;20077;-70
2022/03/20 03:50:04;;;;;;;18.17;10.85;;;3.90;99.90;;;;;;4983316;28;20088;-70
2022/03/20 03:52:30;;;;;;;15.68;10.63;;;3.90;99.90;;;;;;4976076;28;20215;-70
2022/03/20 03:54:56;;;;;;;17.67;10.25;;;3.90;99.90;;;;;;4991193;28;20398;-69
2022/03/20 03:57:21;;;;;;;16.73;10.93;;;3.80;99.90;;;;;;4990181;28;20038;-69
2022/03/20 03:59:47;;;;;;;18.38;11.05;;;3.80;99.90;;;;;;4992279;28;20078;-69
2022/03/20 04:02:13;;;;;;;18.30;9.90;;;3.80;99.90;;;;;;4992100;28;20414;-70
2022/03/20 04:04:41;;;;;;;16.45;10.60;;;3.80;99.90;;;;;;4992700;28;20086;-70
2022/03/20 04:07:08;;;;;;;20.67;10.80;;;3.70;99.90;;;;;;4991474;28;20065;-70
2022/03/20 04:09:34;;;;;;;18.08;11.10;;;3.70;99.90;;;;;;4989342;28;20092;-69
2022/03/20 04:12:00;;;;;;;17.25;11.20;;;3.70;99.90;;;;;;4990119;28;20155;-69
2022/03/20 04:14:26;;;;;;;20.27;10.80;;;3.70;99.90;;;;;;4990456;28;20483;-70
2022/03/20 04:16:54;;;;;;;17.77;11.13;;;3.70;99.90;;;;;;4988915;28;20042;-70
2022/03/20 04:19:20;;;;;;;18.90;11.77;;;3.60;99.90;;;;;;4989886;28;20391;-70
2022/03/20 04:21:48;;;;;;;18.05;11.70;;;3.60;99.90;;;;;;4989072;28;20058;-70
2022/03/20 04:24:13;;;;;;;17.50;11.00;;;3.60;99.90;;;;;;4988431;28;20089;-69
2022/03/20 04:26:39;;;;;;;16.85;11.10;;;3.60;99.90;;;;;;4985299;28;20038;-69
2022/03/20 04:29:05;;;;;;;21.25;11.77;;;3.60;99.90;;;;;;4989733;28;20208;-69
2022/03/20 04:31:30;;;;;;;17.05;11.75;;;3.60;99.90;;;;;;4989172;28;20046;-70
2022/03/20 04:33:56;;;;;;;18.27;11.30;;;3.50;99.90;;;;;;4989714;28;20046;-70
2022/03/20 04:36:24;;;;;;;19.02;11.93;;;3.50;99.90;;;;;;4989662;28;20487;-69
2022/03/20 04:38:51;;;;;;;18.85;12.30;;;3.40;99.90;;;;;;4987175;28;20060;-70
2022/03/20 04:41:18;;;;;;;19.13;11.40;;;3.40;99.90;;;;;;4989558;28;20041;-70
2022/03/20 04:43:44;;;;;;;18.67;11.90;;;3.40;99.90;;;;;;4989733;28;20061;-69
2022/03/20 04:46:11;;;;;;;18.70;12.15;;;3.40;99.90;;;;;;4989249;28;20398;-69
2022/03/20 04:59:33;;;;;;;18.05;11.65;;;3.30;99.90;;;;;;4988900;28;20129;-70
2022/03/20 05:01:59;;;;;;;19.92;12.20;;;3.30;99.90;;;;;;4989125;28;20460;-70
2022/03/20 05:04:24;;;;;;;21.42;12.18;;;3.40;99.90;;;;;;4971786;28;20054;-70
2022/03/20 05:06:50;;;;;;;21.20;13.00;;;3.30;99.90;;;;;;4970064;28;20117;-69
2022/03/20 05:14:44;;;;;;;18.45;12.77;;;3.30;99.90;;;;;;4989425;28;20438;-70
2022/03/20 05:17:10;;;;;;;20.10;12.35;;;3.20;99.90;;;;;;4988777;28;20069;-70
2022/03/20 05:19:38;;;;;;;19.60;12.20;;;3.20;99.90;;;;;;4987606;28;20494;-71
2022/03/20 05:22:05;;;;;;;20.77;12.85;;;3.10;99.90;;;;;;4988813;28;20038;-70
2022/03/20 05:24:33;;;;;;;21.85;13.35;;;3.10;99.90;;;;;;4990467;28;20486;-69
2022/03/20 05:26:59;;;;;;;23.38;12.93;;;3.20;99.90;;;;;;4987626;28;20057;-70
2022/03/20 05:29:24;;;;;;;22.30;13.23;;;3.20;99.90;;;;;;4971348;28;20550;-69
2022/03/20 05:31:52;;;;;;;21.70;13.02;;;3.10;99.90;;;;;;4971592;28;20053;-70
2022/03/20 05:34:17;;;;;;;19.33;13.02;;;3.10;99.90;;;;;;4989578;28;20034;-69
2022/03/20 05:36:43;;;;;;;21.83;13.57;;;3.10;99.90;;;;;;4990328;28;20053;-70
2022/03/20 05:39:09;;;;;;;20.65;12.18;;;3.10;99.90;;;;;;4988960;28;20232;-69
2022/03/20 05:41:46;;;;;;;23.60;12.75;;;3.10;99.90;;;;;;4987947;28;20073;-70
2022/03/20 05:44:20;;;;;;;22.15;14.20;;;3.00;99.90;;;;;;4989179;28;20090;-69
2022/03/20 05:46:46;;;;;;;20.55;13.85;;;3.10;99.90;;;;;;4988829;28;20078;-69
2022/03/20 05:49:22;;;;;;;22.90;13.60;;;3.00;99.90;;;;;;4969321;28;20105;-70
2022/03/20 05:51:49;;;;;;;21.08;14.23;;;3.00;99.90;;;;;;4987601;28;20090;-70
2022/03/20 05:54:16;;;;;;;22.85;13.35;;;3.10;99.90;;;;;;4988283;28;20529;-69
2022/03/20 05:59:27;;;;;;;22.08;14.15;;;3.20;99.90;;;;;;4988787;28;20060;-69
2022/03/20 06:01:53;;;;;;;23.70;14.50;;;3.10;99.90;;;;;;4986556;28;20117;-70
2022/03/20 06:04:19;;;;;;;22.60;14.32;;;3.20;99.90;;;;;;4971605;28;20053;-70
2022/03/20 06:06:45;;;;;;;22.75;14.48;;;3.20;99.90;;;;;;4987793;28;20109;-70
2022/03/20 06:09:11;;;;;;;21.90;14.10;;;3.20;99.90;;;;;;4987917;28;20046;-70
2022/03/20 06:11:37;;;;;;;20.08;14.20;;;3.20;99.90;;;;;;4988223;28;20113;-70
2022/03/20 06:14:04;;;;;;;22.95;15.20;;;3.20;99.90;;;;;;4990626;28;20521;-70
2022/03/20 06:16:31;;;;;;;25.83;14.75;;;3.20;99.90;;;;;;4987870;28;20133;-70
2022/03/20 06:18:57;;;;;;;21.10;13.45;;;3.20;99.90;;;;;;4988153;28;20062;-70
2022/03/20 06:21:23;;;;;;;20.67;14.30;;;3.30;99.90;;;;;;4987595;28;20054;-70
2022/03/20 06:23:54;;;;;;;23.70;15.40;;;3.30;99.90;;;;;;4986992;28;20053;-71
2022/03/20 06:26:20;;;;;;;22.48;14.77;;;3.30;99.90;;;;;;4955295;28;20061;-70
2022/03/20 06:28:46;;;;;;;20.80;14.40;;;3.30;99.90;;;;;;4987288;28;20065;-70
2022/03/20 06:31:12;;;;;;;18.42;12.98;;;3.40;99.90;;;;;;4988653;28;20130;-70
2022/03/20 06:33:39;;;;;;;23.55;13.75;;;3.40;99.90;;;;;;4989566;28;20046;-70
2022/03/20 06:36:06;;;;;;;23.00;13.73;;;3.50;99.90;;;;;;4987154;28;20438;-70
2022/03/20 06:38:33;;;;;;;21.92;14.40;;;3.60;99.90;;;;;;4987314;28;20514;-70
2022/03/20 06:41:00;;;;;;;23.77;14.63;;;3.60;99.90;;;;;;4987887;28;20046;-70
2022/03/20 06:43:27;;;;;;;23.95;14.95;;;3.70;99.90;;;;;;4988584;28;20050;-70
2022/03/20 06:45:54;;;;;;;23.77;14.75;;;3.80;99.90;;;;;;4990134;28;20054;-69
2022/03/20 06:48:20;;;;;;;23.23;14.05;;;3.80;99.90;;;;;;4992447;28;20051;-70
2022/03/20 06:50:45;;;;;;;22.20;14.18;;;3.90;99.90;;;;;;4973496;28;20117;-70
2022/03/20 06:53:11;;;;;;;21.77;13.45;;;4.00;99.90;;;;;;4990888;28;20562;-69
2022/03/20 06:55:38;;;;;;;22.60;14.93;;;4.10;99.90;;;;;;4974211;28;20069;-70
2022/03/20 06:58:03;;;;;;;19.02;13.57;;;4.30;99.90;;;;;;4990581;28;20046;-69
2022/03/20 07:00:29;;;;;;;21.23;14.02;;;4.50;99.90;;;;;;4991854;28;20056;-70
2022/03/20 07:02:56;;;;;;;21.23;13.75;;;5.80;99.90;;;;;;4991339;28;20050;-69
2022/03/20 07:05:22;;;;;;;22.95;14.55;;;6.80;99.90;;;;;;4987083;28;20049;-70
2022/03/20 07:07:50;;;;;;;18.50;13.13;;;7.70;99.90;;;;;;4990115;28;20046;-70
2022/03/20 07:10:19;;;;;;;23.05;13.20;;;8.60;99.90;;;;;;4991853;28;20058;-70
2022/03/20 07:12:45;;;;;;;22.85;13.10;;;9.30;99.90;;;;;;4990609;28;20054;-70
2022/03/20 07:15:11;;;;;;;17.45;12.68;;;10.00;99.90;;;;;;4991766;28;20046;-70
2022/03/20 07:17:37;;;;;;;22.33;13.70;;;10.50;99.90;;;;;;4992913;28;20041;-70
2022/03/20 07:20:09;;;;;;;21.08;13.27;;;10.90;99.90;;;;;;4973252;28;20367;-70
2022/03/20 07:22:35;;;;;;;21.17;13.25;;;11.20;99.50;;;;;;4990533;28;20046;-70
2022/03/20 07:29:29;;;;;;;18.15;12.00;;;11.10;99.30;;;;;;4991870;28;20129;-72
2022/03/20 07:30:31;;;;;;;18.48;13.68;;;11.90;98.80;;;;;;4975954;28;20457;-70
2022/03/20 07:32:57;;;;;;;21.08;14.15;;;12.20;98.10;;;;;;4990942;28;20057;-70
2022/03/20 07:35:23;;;;;;;18.63;13.18;;;12.50;96.70;;;;;;4990601;28;20142;-70
2022/03/20 07:37:49;;;;;;;19.80;13.75;;;12.80;96.00;;;;;;4990057;28;20065;-70
2022/03/20 07:40:14;;;;;;;20.45;13.48;;;13.20;95.20;;;;;;4990742;28;20487;-70
2022/03/20 07:42:40;;;;;;;18.52;13.13;;;13.50;94.00;;;;;;4972740;28;20097;-70
2022/03/20 07:45:06;;;;;;;18.25;13.68;;;13.90;94.00;;;;;;4991132;28;20049;-70
2022/03/20 07:47:32;;;;;;;17.05;13.02;;;14.20;92.50;;;;;;4989839;28;20061;-71
2022/03/20 07:49:59;;;;;;;19.45;13.00;;;14.40;91.80;;;;;;4990454;28;20038;-70
2022/03/20 07:52:25;;;;;;;17.40;12.20;;;14.60;89.00;;;;;;4989787;28;20043;-71
2022/03/20 07:54:50;;;;;;;18.48;12.75;;;13.00;90.40;;;;;;4990118;28;20046;-70
2022/03/20 07:57:16;;;;;;;19.77;12.95;;;11.80;93.20;;;;;;4991102;28;20047;-71
2022/03/20 07:59:44;;;;;;;20.67;12.75;;;10.90;96.00;;;;;;4973198;28;20054;-71
2022/03/20 08:02:11;;;;;;;19.95;13.15;;;10.70;97.60;;;;;;4972972;28;20038;-70
2022/03/20 08:04:37;;;;;;;19.10;12.00;;;9.60;98.90;;;;;;4970474;28;20042;-70
2022/03/20 08:07:05;;;;;;;23.48;13.25;;;9.90;99.90;;;;;;4980828;28;20096;-70
2022/03/20 08:09:30;;;;;;;18.58;13.52;;;8.60;99.90;;;;;;4977694;28;20097;-71
2022/03/20 08:11:56;;;;;;;22.42;13.90;;;8.40;99.90;;;;;;4962282;28;20042;-70
2022/03/20 08:14:23;;;;;;;20.70;14.07;;;8.20;99.90;;;;;;4980574;28;20146;-71
2022/03/20 08:16:50;;;;;;;19.60;13.10;;;8.00;99.90;;;;;;4955063;28;20910;-70
2022/03/20 08:19:19;;;;;;;22.75;14.70;;;8.00;99.90;;;;;;4970663;28;20054;-71
2022/03/20 08:21:48;;;;;;;21.45;14.50;;;7.90;99.90;;;;;;4970477;28;20514;-71
2022/03/20 08:24:14;;;;;;;22.63;14.02;;;8.00;99.90;;;;;;4953341;28;20046;-70
2022/03/20 08:26:40;;;;;;;22.85;14.40;;;8.00;99.90;;;;;;4988216;28;20057;-70
2022/03/20 08:29:12;;;;;;;20.92;14.57;;;8.00;99.90;;;;;;4988393;28;20085;-70
2022/03/20 08:31:37;;;;;;;24.92;14.85;;;8.10;99.90;;;;;;4973032;28;20053;-70
2022/03/20 08:34:04;;;;;;;23.67;14.40;;;8.30;99.90;;;;;;4989719;28;20046;-69
2022/03/20 08:36:30;;;;;;;23.52;14.00;;;8.80;99.90;;;;;;4954892;28;20050;-69
2022/03/20 08:38:56;;;;;;;23.33;15.18;;;8.90;99.90;;;;;;4989785;28;20046;-69
2022/03/20 08:41:21;;;;;;;22.02;14.35;;;8.80;99.90;;;;;;4972467;28;20050;-70
2022/03/20 08:43:47;;;;;;;22.40;14.57;;;8.90;99.90;;;;;;4970450;28;20054;-70
2022/03/20 08:46:15;;;;;;;20.48;14.93;;;9.00;99.90;;;;;;4989440;28;20064;-71
2022/03/20 08:48:40;;;;;;;25.83;14.25;;;9.90;99.90;;;;;;4988992;28;20506;-70
2022/03/20 08:51:06;;;;;;;22.45;15.05;;;9.10;99.90;;;;;;4987778;28;20046;-70
2022/03/20 08:53:33;;;;;;;21.30;15.13;;;9.30;99.90;;;;;;4972369;28;20053;-70
2022/03/20 08:55:59;;;;;;;20.92;14.82;;;10.20;99.10;;;;;;4989517;28;20042;-71
2022/03/20 08:58:24;;;;;;;22.40;15.63;;;12.50;96.10;;;;;;4989301;28;20054;-70
2022/03/20 09:00:50;;;;;;;19.85;14.38;;;14.20;90.80;;;;;;4989470;28;20039;-71
2022/03/20 09:03:16;;;;;;;19.75;13.63;;;15.70;83.70;;;;;;4989369;28;20054;-71
2022/03/20 09:05:42;;;;;;;23.48;14.93;;;16.80;71.90;;;;;;4987056;28;20046;-70
2022/03/20 09:08:07;;;;;;;20.73;14.93;;;17.70;67.50;;;;;;4988936;28;20156;-71
2022/03/20 09:10:34;;;;;;;20.63;14.75;;;18.30;64.50;;;;;;4989024;28;20058;-71
2022/03/20 09:13:00;;;;;;;21.38;15.38;;;19.30;60.10;;;;;;4984548;28;20051;-71
2022/03/20 09:15:27;;;;;;;23.60;15.27;;;19.80;58.30;;;;;;4973188;28;20060;-71
2022/03/20 09:20:39;;;;;;;19.08;14.88;;;21.00;55.10;;;;;;4965090;28;20054;-72
2022/03/20 09:23:06;;;;;;;20.65;15.23;;;21.40;52.20;;;;;;4973891;28;20414;-71
2022/03/20 09:25:32;;;;;;;24.25;15.70;;;22.00;50.90;;;;;;4960909;28;20084;-72
2022/03/20 09:27:59;;;;;;;21.27;15.32;;;22.30;51.10;;;;;;4987378;28;20507;-72
2022/03/20 09:30:25;;;;;;;23.05;14.40;;;22.50;49.20;;;;;;4962864;28;20059;-71
2022/03/20 09:32:51;;;;;;;21.40;15.50;;;22.40;48.30;;;;;;4953633;28;20048;-70
2022/03/20 09:35:17;;;;;;;20.50;14.90;;;22.20;48.40;;;;;;4988065;28;20054;-70
2022/03/20 09:37:43;;;;;;;23.02;15.98;;;22.80;47.90;;;;;;4987124;28;20167;-72
2022/03/20 09:40:10;;;;;;;20.40;15.20;;;22.50;47.10;;;;;;4953126;28;20060;-70
2022/03/20 09:42:36;;;;;;;20.65;15.23;;;22.30;46.90;;;;;;4988684;28;20430;-70
2022/03/20 09:45:05;;;;;;;21.25;14.88;;;23.30;47.10;;;;;;4971308;28;20402;-72
2022/03/20 09:47:36;;;;;;;22.35;15.73;;;23.70;46.10;;;;;;4980722;28;20042;-72
2022/03/20 09:50:03;;;;;;;20.00;15.60;;;23.70;44.40;;;;;;4981791;28;20046;-71
2022/03/20 09:52:29;;;;;;;20.63;15.60;;;24.10;45.00;;;;;;4988499;28;20093;-71
2022/03/20 09:54:58;;;;;;;19.85;14.95;;;24.00;45.00;;;;;;4987457;28;20062;-71
2022/03/20 09:57:28;;;;;;;22.13;16.80;;;24.20;43.10;;;;;;4989167;28;20146;-71
2022/03/20 09:59:54;;;;;;;21.60;15.95;;;23.90;42.70;;;;;;4970725;28;20108;-71
2022/03/20 10:02:19;;;;;;;21.48;16.40;;;23.70;42.80;;;;;;4989811;28;20391;-71
2022/03/20 10:05:18;;;;;;;23.08;15.82;;;23.80;42.60;;;;;;4988478;28;20046;-71
2022/03/20 10:07:43;;;;;;;20.80;16.02;;;23.70;42.20;;;;;;4987006;28;20454;-70
2022/03/20 10:10:23;;;;;;;19.70;15.40;;;23.90;42.10;;;;;;4986743;28;20097;-72
2022/03/20 10:12:56;;;;;;;22.45;15.77;;;24.00;41.80;;;;;;4957278;28;20120;-71
2022/03/20 10:15:35;;;;;;;20.08;15.75;;;24.00;42.20;;;;;;4988607;28;20211;-72
2022/03/20 10:18:14;;;;;;;21.08;16.33;;;24.30;41.70;;;;;;4970378;28;20049;-71
2022/03/20 10:20:46;;;;;;;22.25;16.10;;;24.80;41.40;;;;;;4987494;28;20426;-72
2022/03/20 10:23:41;;;;;;;23.30;16.15;;;25.20;41.00;;;;;;4991947;28;20529;-72
2022/03/20 10:26:09;;;;;;;21.45;16.92;;;26.00;40.40;;;;;;4988686;28;20050;-71
2022/03/20 10:28:42;;;;;;;30.30;16.67;;;25.90;39.80;;;;;;4974732;28;20144;-72
2022/03/20 10:31:10;;;;;;;21.92;16.33;;;25.70;39.20;;;;;;4990888;28;20042;-70
2022/03/20 10:33:41;;;;;;;21.77;17.00;;;25.50;39.20;;;;;;4991578;28;20505;-72
2022/03/20 10:36:17;;;;;;;20.30;16.50;;;25.70;39.20;;;;;;4989907;28;20081;-71
2022/03/20 10:38:46;;;;;;;22.67;16.70;;;26.40;39.00;;;;;;4990762;28;20096;-71
2022/03/20 10:41:34;;;;;;;20.80;16.52;;;26.30;38.50;;;;;;4994209;28;20472;-71
2022/03/20 10:44:00;;;;;;;25.33;16.80;;;26.30;38.20;;;;;;4991600;28;20122;-71
2022/03/20 10:46:31;;;;;;;25.90;17.05;;;26.00;38.60;;;;;;4992219;28;20404;-71
2022/03/20 10:49:03;;;;;;;24.40;17.02;;;26.30;38.00;;;;;;4974087;28;20042;-71
2022/03/20 10:51:37;;;;;;;21.58;16.58;;;26.10;38.10;;;;;;4973314;28;20061;-72
2022/03/20 10:54:07;;;;;;;23.90;16.43;;;26.80;38.50;;;;;;4973621;28;20105;-72
2022/03/20 10:56:33;;;;;;;22.90;16.95;;;27.10;37.30;;;;;;4991865;28;20298;-71
2022/03/20 10:59:00;;;;;;;22.35;16.33;;;27.10;37.60;;;;;;4991201;28;20083;-71
2022/03/20 11:01:36;;;;;;;21.15;16.20;;;27.80;36.80;;;;;;4991749;28;20046;-71
2022/03/20 11:04:08;;;;;;;22.63;16.92;;;28.80;37.20;;;;;;4991800;28;20054;-71
2022/03/20 11:06:35;;;;;;;19.38;16.35;;;28.00;36.60;;;;;;4990924;28;20122;-73
2022/03/20 11:09:04;;;;;;;21.88;16.33;;;28.10;36.70;;;;;;4973862;28;20069;-71
2022/03/20 11:11:33;;;;;;;22.33;15.73;;;27.20;36.70;;;;;;4973124;28;20256;-71
2022/03/20 11:14:00;;;;;;;20.58;17.25;;;27.50;36.70;;;;;;4991835;28;20042;-71
2022/03/20 11:16:28;;;;;;;22.90;16.77;;;27.90;36.40;;;;;;4990994;28;20084;-72
2022/03/20 11:18:56;;;;;;;19.50;16.10;;;28.20;36.10;;;;;;4972528;28;20141;-71
2022/03/20 11:21:24;;;;;;;21.33;16.90;;;28.30;36.40;;;;;;4990302;28;20054;-71
2022/03/20 11:23:52;;;;;;;21.25;16.48;;;28.70;36.70;;;;;;4990081;28;20257;-71
2022/03/20 11:26:21;;;;;;;21.48;16.20;;;29.50;35.70;;;;;;4973052;28;20042;-70
2022/03/20 11:28:53;;;;;;;20.65;16.42;;;30.00;35.20;;;;;;4969913;28;20042;-71
2022/03/20 11:31:20;;;;;;;22.85;16.75;;;30.00;35.20;;;;;;4956220;28;20054;-72
2022/03/20 11:33:48;;;;;;;18.88;16.63;;;30.40;34.70;;;;;;4969704;28;20057;-71
2022/03/20 11:36:14;;;;;;;21.77;16.52;;;30.20;34.70;;;;;;4971559;28;20039;-71
2022/03/20 11:38:41;;;;;;;22.20;17.48;;;29.00;34.40;;;;;;4953711;28;20055;-72
2022/03/20 11:41:20;;;;;;;21.33;17.20;;;28.00;35.10;;;;;;4970943;28;20058;-72
2022/03/20 11:44:11;;;;;;;23.15;16.80;;;27.60;35.40;;;;;;4971603;28;20376;-72
2022/03/20 11:46:38;;;;;;;19.95;16.42;;;27.20;35.80;;;;;;4953178;28;20083;-72
2022/03/20 11:49:19;;;;;;;25.10;16.85;;;27.50;35.40;;;;;;4971170;28;20047;-72
2022/03/20 11:52:07;;;;;;;20.88;17.08;;;27.90;34.70;;;;;;4953329;28;20467;-72
2022/03/20 11:54:39;;;;;;;22.92;17.08;;;27.60;35.00;;;;;;4953040;28;20058;-72
2022/03/20 11:57:24;;;;;;;22.35;17.10;;;27.20;35.40;;;;;;4953587;28;20074;-72
2022/03/20 11:59:51;;;;;;;22.27;16.90;;;26.80;35.60;;;;;;4971159;28;20054;-72
2022/03/20 12:02:18;;;;;;;22.02;16.95;;;27.00;35.80;;;;;;4971218;28;20377;-72
2022/03/20 12:05:13;;;;;;;21.75;17.42;;;27.10;35.00;;;;;;4969843;28;20047;-72
2022/03/20 12:07:54;;;;;;;24.23;17.38;;;27.30;35.20;;;;;;4970119;28;20949;-72
2022/03/20 12:10:45;;;;;;;23.15;16.45;;;27.50;35.00;;;;;;4971144;28;20051;-71
2022/03/20 12:13:24;;;;;;;21.45;16.50;;;26.60;35.10;;;;;;4971089;28;20079;-71
2022/03/20 12:15:56;;;;;;;24.60;16.85;;;26.30;35.10;;;;;;4972591;28;20090;-71
2022/03/20 12:18:21;;;;;;;20.95;16.40;;;26.90;35.60;;;;;;4985748;28;20404;-71
2022/03/20 12:20:52;;;;;;;25.35;17.60;;;26.80;35.50;;;;;;4988926;28;20053;-72
2022/03/20 12:23:31;;;;;;;23.02;16.48;;;26.90;35.40;;;;;;4955919;28;20046;-71
2022/03/20 12:25:58;;;;;;;25.45;17.25;;;25.90;35.30;;;;;;4972573;28;20161;-71
2022/03/20 12:28:30;;;;;;;24.88;17.95;;;24.60;35.80;;;;;;4990485;28;20047;-71
2022/03/20 12:30:57;;;;;;;23.45;17.98;;;23.60;37.10;;;;;;4972371;28;20046;-71
2022/03/20 12:33:25;;;;;;;23.15;17.95;;;23.10;37.80;;;;;;4957461;28;20082;-71
2022/03/20 12:35:52;;;;;;;22.20;17.20;;;23.10;37.90;;;;;;4988684;28;20517;-71
2022/03/20 12:38:40;;;;;;;23.98;18.55;;;23.20;38.00;;;;;;4940925;28;20053;-71
2022/03/20 12:41:11;;;;;;;24.23;17.52;;;23.30;37.70;;;;;;4989543;28;20471;-71
2022/03/20 12:43:37;;;;;;;27.67;18.08;;;23.00;37.70;;;;;;4989415;28;20081;-72
2022/03/20 12:46:03;;;;;;;20.60;17.20;;;23.00;38.30;;;;;;4971026;28;20065;-71
2022/03/20 12:48:32;;;;;;;25.35;17.85;;;23.10;38.00;;;;;;4988443;28;20042;-71
2022/03/20 12:51:11;;;;;;;21.42;17.63;;;23.50;38.20;;;;;;4971582;28;20403;-70
2022/03/20 12:53:46;;;;;;;21.88;17.25;;;23.80;37.80;;;;;;4976931;28;20057;-71
2022/03/20 12:56:31;;;;;;;26.00;17.63;;;23.80;37.80;;;;;;4989834;28;20054;-70
2022/03/20 12:58:58;;;;;;;24.92;17.80;;;23.50;38.10;;;;;;4971025;28;20050;-73
2022/03/20 13:01:25;;;;;;;24.65;18.00;;;23.10;38.10;;;;;;4989226;28;20038;-73
2022/03/20 13:03:51;;;;;;;22.45;18.02;;;22.20;38.60;;;;;;4990445;28;20402;-70
2022/03/20 13:06:17;;;;;;;26.40;17.58;;;20.70;39.80;;;;;;4986394;28;20050;-71
2022/03/20 13:08:46;;;;;;;24.75;17.85;;;19.40;41.00;;;;;;4969618;28;20054;-73
2022/03/20 13:14:05;;;;;;;26.40;18.05;;;17.50;43.50;;;;;;4974572;28;20058;-73
2022/03/20 13:16:32;;;;;;;23.95;18.17;;;16.60;44.80;;;;;;4989797;28;20464;-73